createdAt,value
2023-03-18T00:00:09.853Z,11.30
2023-03-18T00:03:17.659Z,11.30
2023-03-18T00:06:10.351Z,14.97
2023-03-18T00:09:32.430Z,9.80
2023-03-18T00:12:34.533Z,10.90
2023-03-18T00:15:38.078Z,15.27
2023-03-18T00:18:05.404Z,13.70
2023-03-18T00:21:12.319Z,15.27
2023-03-18T00:24:15.441Z,14.50
2023-03-18T00:27:17.207Z,15.20
2023-03-18T00:29:59.225Z,11.93
2023-03-18T00:33:20.912Z,11.50
2023-03-18T00:36:10.259Z,15.57
2023-03-18T00:38:57.851Z,12.33
2023-03-18T00:41:29.740Z,13.47
2023-03-18T00:44:37.076Z,10.97
2023-03-18T00:47:18.978Z,11.97
2023-03-18T00:50:20.862Z,15.80
2023-03-18T00:53:08.044Z,10.10
2023-03-18T00:55:55.401Z,9.53
2023-03-18T00:58:37.538Z,15.17
2023-03-18T01:01:44.712Z,11.73
2023-03-18T01:04:11.802Z,11.10
2023-03-18T01:07:13.951Z,11.37
2023-03-18T01:10:15.996Z,14.87
2023-03-18T01:13:18.183Z,10.40
2023-03-18T01:16:01.945Z,10.90
2023-03-18T01:19:24.868Z,11.47
2023-03-18T01:22:12.000Z,8.00
2023-03-18T01:25:18.894Z,11.77
2023-03-18T01:28:00.853Z,13.73
2023-03-18T01:31:08.504Z,13.17
2023-03-18T01:33:36.815Z,10.77
2023-03-18T01:36:25.216Z,7.73
2023-03-18T01:39:12.143Z,9.80
2023-03-18T01:41:59.637Z,11.30
2023-03-18T01:44:27.399Z,6.70
2023-03-18T01:47:34.499Z,10.90
2023-03-18T01:50:49.886Z,10.97
2023-03-18T01:53:56.010Z,9.23
2023-03-18T01:56:40.293Z,9.17
2023-03-18T01:59:47.389Z,7.33
2023-03-18T02:02:54.499Z,10.10
2023-03-18T02:05:43.479Z,7.30
2023-03-18T02:08:10.508Z,7.90
2023-03-18T02:11:17.639Z,8.27
2023-03-18T02:14:25.326Z,10.43
2023-03-18T02:17:30.486Z,9.07
2023-03-18T02:20:18.805Z,9.00
2023-03-18T02:22:54.142Z,8.73
2023-03-18T02:25:50.068Z,7.90
2023-03-18T02:29:11.747Z,10.73
2023-03-18T02:31:59.452Z,11.07
2023-03-18T02:34:46.919Z,7.93
2023-03-18T02:37:14.249Z,10.13
2023-03-18T02:40:53.308Z,8.43
2023-03-18T02:43:55.278Z,7.97
2023-03-18T02:46:50.428Z,7.57
2023-03-18T02:49:19.121Z,9.77
2023-03-18T02:52:46.515Z,9.83
2023-03-18T02:55:48.527Z,7.73
2023-03-18T02:58:36.115Z,8.43
2023-03-18T03:01:04.663Z,8.30
2023-03-18T03:04:12.363Z,7.73
2023-03-18T03:07:01.513Z,5.07
2023-03-18T03:09:48.738Z,10.57
2023-03-18T03:12:37.900Z,6.93
2023-03-18T03:15:20.534Z,7.90
2023-03-18T03:18:04.132Z,6.43
2023-03-18T03:21:11.410Z,7.17
2023-03-18T03:23:59.508Z,9.70
2023-03-18T03:26:46.800Z,7.03
2023-03-18T03:29:33.822Z,7.03
2023-03-18T03:32:41.003Z,9.73
2023-03-18T03:35:48.197Z,6.90
2023-03-18T03:38:50.510Z,8.50
2023-03-18T03:41:32.375Z,8.53
2023-03-18T03:44:54.106Z,8.13
2023-03-18T03:47:56.462Z,7.90
2023-03-18T03:50:59.135Z,5.23
2023-03-18T03:53:41.265Z,12.00
2023-03-18T03:56:48.770Z,8.77
2023-03-18T03:59:56.460Z,6.03
2023-03-18T04:02:43.744Z,6.50
2023-03-18T04:05:31.926Z,6.43
2023-03-18T04:08:13.755Z,9.20
2023-03-18T04:10:41.004Z,15.50
2023-03-18T04:14:08.117Z,8.13
2023-03-18T04:17:09.937Z,9.37
2023-03-18T04:19:57.088Z,9.73
2023-03-18T04:22:44.076Z,11.07
2023-03-18T04:25:12.598Z,10.37
2023-03-18T04:27:59.676Z,8.50
2023-03-18T04:31:06.854Z,15.47
2023-03-18T04:33:53.863Z,7.43
2023-03-18T04:36:55.803Z,7.53
2023-03-18T04:39:37.643Z,7.97
2023-03-18T04:42:47.776Z,7.03
2023-03-18T04:45:54.838Z,13.67
2023-03-18T04:48:42.136Z,8.83
2023-03-18T04:51:49.098Z,8.73
2023-03-18T04:54:16.324Z,7.47
2023-03-18T04:57:05.889Z,8.23
2023-03-18T05:00:27.803Z,10.40
2023-03-18T05:03:15.454Z,15.70
2023-03-18T05:06:22.984Z,4.80
2023-03-18T05:09:05.588Z,5.70
2023-03-18T05:12:13.405Z,14.20
2023-03-18T05:15:00.563Z,7.70
2023-03-18T05:17:47.788Z,7.20
2023-03-18T05:20:14.926Z,7.67
2023-03-18T05:23:22.561Z,5.30
2023-03-18T05:26:10.044Z,5.90
2023-03-18T05:28:57.420Z,9.33
2023-03-18T05:31:44.683Z,8.07
2023-03-18T05:34:52.698Z,9.50
2023-03-18T05:37:39.603Z,5.80
2023-03-18T05:40:41.402Z,6.53
2023-03-18T05:43:08.976Z,7.77
2023-03-18T05:46:15.844Z,11.40
2023-03-18T05:49:17.735Z,7.87
2023-03-18T05:52:19.529Z,10.23
2023-03-18T05:54:46.768Z,9.27
2023-03-18T05:58:13.561Z,8.33
2023-03-18T06:01:15.351Z,6.47
2023-03-18T06:04:02.502Z,8.80
2023-03-18T06:06:49.783Z,11.13
2023-03-18T06:09:17.531Z,7.17
2023-03-18T06:12:05.574Z,8.47
2023-03-18T06:15:13.588Z,11.03
2023-03-18T06:18:20.830Z,5.87
2023-03-18T06:21:22.609Z,9.27
2023-03-18T06:24:04.914Z,9.80
2023-03-18T06:27:27.056Z,9.07
2023-03-18T06:30:14.267Z,13.80
2023-03-18T06:33:21.307Z,6.50
2023-03-18T06:35:49.540Z,14.23
2023-03-18T06:39:16.418Z,12.50
2023-03-18T06:41:58.337Z,7.07
2023-03-18T06:44:50.644Z,7.07
2023-03-18T06:47:39.431Z,10.47
2023-03-18T06:50:26.767Z,9.73
2023-03-18T06:53:14.297Z,9.17
2023-03-18T06:56:22.178Z,5.77
2023-03-18T06:59:09.742Z,8.20
2023-03-18T07:02:11.477Z,7.70
2023-03-18T07:05:00.269Z,11.07
2023-03-18T07:07:28.088Z,7.67
2023-03-18T07:10:19.269Z,8.37
2023-03-18T07:13:26.376Z,6.07
2023-03-18T07:16:33.317Z,5.30
2023-03-18T07:19:35.554Z,5.87
2023-03-18T07:22:03.289Z,7.33
2023-03-18T07:25:31.735Z,9.00
2023-03-18T07:28:33.641Z,7.73
2023-03-18T07:31:20.858Z,5.43
2023-03-18T07:34:27.821Z,6.93
2023-03-18T07:37:10.145Z,9.50
2023-03-18T07:39:53.182Z,8.47
2023-03-18T07:43:00.836Z,12.70
2023-03-18T07:46:07.795Z,3.93
2023-03-18T07:48:54.980Z,8.40
2023-03-18T07:51:22.275Z,11.17
2023-03-18T07:54:44.010Z,7.37
2023-03-18T07:57:31.541Z,7.07
2023-03-18T08:00:38.951Z,7.20
2023-03-18T08:03:40.957Z,7.03
2023-03-18T08:06:08.316Z,8.80
2023-03-18T08:08:55.860Z,8.53
2023-03-18T08:12:19.063Z,8.60
2023-03-18T08:15:17.845Z,7.30
2023-03-18T08:18:24.894Z,5.37
2023-03-18T08:21:27.978Z,6.30
2023-03-18T08:24:10.996Z,7.40
2023-03-18T08:27:12.944Z,9.80
2023-03-18T08:30:15.081Z,5.93
2023-03-18T08:32:43.673Z,7.97
2023-03-18T08:36:10.543Z,7.77
2023-03-18T08:38:57.865Z,6.70
2023-03-18T08:41:45.863Z,6.60
2023-03-18T08:44:13.230Z,10.37
2023-03-18T08:47:40.277Z,6.57
2023-03-18T08:50:29.694Z,9.17
2023-03-18T08:53:32.286Z,8.27
2023-03-18T08:56:01.810Z,8.57
2023-03-18T08:58:31.280Z,6.90
2023-03-18T09:00:58.621Z,5.17
2023-03-18T09:03:25.760Z,8.43
2023-03-18T09:05:55.559Z,9.97
2023-03-18T09:08:22.707Z,8.13
2023-03-18T09:10:54.033Z,9.37
2023-03-18T09:13:22.206Z,5.90
2023-03-18T09:15:49.825Z,7.80
2023-03-18T09:18:18.467Z,4.07
2023-03-18T09:20:46.390Z,7.97
2023-03-18T09:23:15.749Z,8.53
2023-03-18T09:25:42.972Z,9.83
2023-03-18T09:28:10.410Z,7.93
2023-03-18T09:30:38.205Z,7.53
2023-03-18T09:33:06.978Z,14.00
2023-03-18T09:35:35.377Z,6.10
2023-03-18T09:38:02.614Z,10.27
2023-03-18T09:40:32.886Z,7.53
2023-03-18T09:43:17.645Z,7.10
2023-03-18T09:45:47.999Z,6.77
2023-03-18T09:48:34.675Z,7.77
2023-03-18T09:51:19.156Z,7.00
2023-03-18T09:53:55.074Z,10.63
2023-03-18T09:56:26.888Z,6.83
2023-03-18T09:59:03.500Z,5.97
2023-03-18T10:01:35.697Z,7.07
2023-03-18T10:04:38.115Z,7.97
2023-03-18T10:07:22.346Z,4.83
2023-03-18T10:09:55.632Z,5.67
2023-03-18T10:12:37.383Z,6.83
2023-03-18T10:15:34.794Z,7.07
2023-03-18T10:18:33.600Z,12.20
2023-03-18T10:21:21.415Z,4.63
2023-03-18T10:24:32.617Z,7.50
2023-03-18T10:27:29.179Z,9.40
2023-03-18T10:30:30.987Z,7.00
2023-03-18T10:33:06.377Z,6.13
2023-03-18T10:35:51.421Z,4.90
2023-03-18T10:38:23.585Z,7.87
2023-03-18T10:40:51.572Z,5.90
2023-03-18T10:43:26.002Z,4.97
2023-03-18T10:46:03.555Z,6.73
2023-03-18T10:48:35.539Z,7.80
2023-03-18T10:51:10.161Z,6.63
2023-03-18T10:53:55.010Z,4.17
2023-03-18T10:56:22.296Z,5.50
2023-03-18T10:58:52.361Z,6.63
2023-03-18T11:01:23.364Z,13.93
2023-03-18T11:04:03.521Z,6.27
2023-03-18T11:06:50.574Z,6.83
2023-03-18T11:09:20.206Z,6.70
2023-03-18T11:11:50.035Z,8.37
2023-03-18T11:14:22.337Z,6.43
2023-03-18T11:16:57.626Z,7.70
2023-03-18T11:19:37.470Z,6.20
2023-03-18T11:22:25.088Z,5.17
2023-03-18T11:25:04.018Z,6.17
2023-03-18T11:27:38.725Z,13.67
2023-03-18T11:30:34.721Z,6.97
2023-03-18T11:33:11.858Z,4.97
2023-03-18T11:35:45.073Z,6.43
2023-03-18T11:38:28.765Z,9.63
2023-03-18T11:41:19.377Z,5.73
2023-03-18T11:44:01.734Z,10.40
2023-03-18T11:46:38.689Z,7.00
2023-03-18T11:49:09.321Z,8.67
2023-03-18T11:52:02.548Z,5.80
2023-03-18T11:55:00.412Z,5.67
2023-03-18T11:58:00.706Z,6.67
2023-03-18T12:00:37.242Z,7.60
2023-03-18T12:03:25.533Z,6.50
2023-03-18T12:06:16.599Z,7.40
2023-03-18T12:08:49.977Z,9.00
2023-03-18T12:11:38.359Z,6.70
2023-03-18T12:14:10.614Z,10.23
2023-03-18T12:16:56.726Z,7.37
2023-03-18T12:20:02.922Z,8.17
2023-03-18T12:22:45.563Z,10.93
2023-03-18T12:25:38.408Z,6.83
2023-03-18T12:28:21.958Z,6.00
2023-03-18T12:30:54.777Z,8.30
2023-03-18T12:33:57.140Z,10.10
2023-03-18T12:36:24.057Z,11.97
2023-03-18T12:39:08.130Z,9.90
2023-03-18T12:42:03.085Z,8.00
2023-03-18T12:44:59.324Z,6.17
2023-03-18T12:47:37.293Z,6.97
2023-03-18T12:50:13.376Z,7.10
2023-03-18T12:53:00.973Z,8.77
2023-03-18T12:55:58.864Z,6.40
2023-03-18T12:58:34.478Z,9.03
2023-03-18T13:01:10.464Z,6.63
2023-03-18T13:03:42.402Z,8.03
2023-03-18T13:06:35.823Z,6.27
2023-03-18T13:09:21.930Z,11.10
2023-03-18T13:12:04.134Z,7.90
2023-03-18T13:14:59.851Z,8.40
2023-03-18T13:17:38.792Z,6.70
2023-03-18T13:20:25.481Z,7.63
2023-03-18T13:23:31.007Z,15.07
2023-03-18T13:26:04.612Z,7.93
2023-03-18T13:28:41.740Z,8.50
2023-03-18T13:31:13.088Z,8.93
2023-03-18T13:33:47.631Z,8.23
2023-03-18T13:36:46.554Z,5.57
2023-03-18T13:39:42.095Z,4.60
2023-03-18T13:42:28.716Z,6.83
2023-03-18T13:45:22.379Z,8.60
2023-03-18T13:48:07.538Z,7.70
2023-03-18T13:50:40.498Z,7.40
2023-03-18T13:53:26.356Z,10.33
2023-03-18T13:55:56.617Z,7.37
2023-03-18T13:58:35.734Z,7.97
2023-03-18T14:01:15.673Z,10.43
2023-03-18T14:03:42.727Z,6.73
2023-03-18T14:06:15.687Z,10.37
2023-03-18T14:08:42.885Z,9.30
2023-03-18T14:11:28.697Z,9.90
2023-03-18T14:14:02.141Z,8.90
2023-03-18T14:16:30.429Z,7.73
2023-03-18T14:18:58.472Z,8.20
2023-03-18T14:21:30.412Z,6.60
2023-03-18T14:24:18.237Z,7.33
2023-03-18T14:27:12.811Z,9.03
2023-03-18T14:29:45.349Z,9.07
2023-03-18T14:32:38.861Z,8.23
2023-03-18T14:35:18.117Z,9.87
2023-03-18T14:38:00.858Z,7.87
2023-03-18T14:40:29.061Z,10.97
2023-03-18T14:43:01.798Z,10.33
2023-03-18T14:45:34.422Z,10.00
2023-03-18T14:48:37.322Z,8.97
2023-03-18T14:51:11.739Z,8.17
2023-03-18T14:53:53.820Z,7.40
2023-03-18T14:56:28.970Z,8.83
2023-03-18T14:58:57.519Z,8.93
2023-03-18T15:01:33.003Z,10.57
2023-03-18T15:04:01.681Z,7.93
2023-03-18T15:06:29.417Z,5.70
2023-03-18T15:08:58.967Z,10.50
2023-03-18T15:11:26.633Z,7.63
2023-03-18T15:14:00.049Z,6.57
2023-03-18T15:16:30.760Z,9.03
2023-03-18T15:18:58.019Z,7.63
2023-03-18T15:21:35.046Z,10.03
2023-03-18T15:24:05.866Z,7.27
2023-03-18T15:26:41.453Z,9.00
2023-03-18T15:29:25.509Z,11.00
2023-03-18T15:31:53.299Z,9.73
2023-03-18T15:34:29.140Z,8.30
2023-03-18T15:36:59.310Z,10.43
2023-03-18T15:39:38.160Z,14.23
2023-03-18T15:42:16.044Z,8.37
2023-03-18T15:44:46.280Z,6.53
2023-03-18T15:47:20.590Z,8.47
2023-03-18T15:50:24.109Z,10.00
2023-03-18T15:53:00.844Z,11.13
2023-03-18T15:55:29.893Z,7.63
2023-03-18T15:57:58.148Z,10.60
2023-03-18T16:00:26.118Z,11.83
2023-03-18T16:02:53.801Z,9.07
2023-03-18T16:05:26.287Z,8.50
2023-03-18T16:07:54.244Z,9.80
2023-03-18T16:10:23.877Z,8.13
2023-03-18T16:12:54.966Z,8.10
2023-03-18T16:15:24.782Z,7.83
2023-03-18T16:17:53.941Z,8.13
2023-03-18T16:20:22.864Z,14.47
2023-03-18T16:22:50.994Z,10.53
2023-03-18T16:25:19.286Z,9.27
2023-03-18T16:27:48.766Z,10.20
2023-03-18T16:30:20.798Z,7.93
2023-03-18T16:32:47.771Z,10.17
2023-03-18T16:35:17.006Z,9.70
2023-03-18T16:37:45.731Z,12.27
2023-03-18T16:40:22.784Z,10.43
2023-03-18T16:42:51.008Z,9.90
2023-03-18T16:45:20.895Z,11.57
2023-03-18T16:47:50.048Z,11.77
2023-03-18T16:50:19.022Z,13.27
2023-03-18T16:52:47.480Z,11.90
2023-03-18T16:55:16.345Z,12.87
2023-03-18T16:58:03.053Z,12.50
2023-03-18T17:00:34.679Z,11.30
2023-03-18T17:03:02.266Z,14.13
2023-03-18T17:05:29.503Z,11.27
2023-03-18T17:07:56.901Z,13.13
2023-03-18T17:10:26.470Z,15.17
2023-03-18T17:13:04.245Z,14.40
2023-03-18T17:15:37.236Z,16.83
2023-03-18T17:18:15.923Z,13.63
2023-03-18T17:20:44.271Z,14.77
2023-03-18T17:23:19.605Z,13.97
2023-03-18T17:25:50.920Z,13.70
2023-03-18T17:28:28.827Z,11.73
2023-03-18T17:30:56.470Z,18.07
2023-03-18T17:33:31.129Z,19.97
2023-03-18T17:36:00.525Z,16.33
2023-03-18T17:38:28.911Z,16.80
2023-03-18T17:40:56.719Z,19.73
2023-03-18T17:43:36.571Z,15.47
2023-03-18T17:46:04.925Z,14.00
2023-03-18T17:48:36.334Z,16.10
2023-03-18T17:51:17.193Z,19.27
2023-03-18T17:53:46.303Z,18.53
2023-03-18T17:56:16.935Z,22.33
2023-03-18T17:58:46.002Z,14.87
2023-03-18T18:01:19.744Z,13.93
2023-03-18T18:03:47.813Z,19.47
2023-03-18T18:06:29.110Z,19.27
2023-03-18T18:09:00.982Z,24.60
2023-03-18T18:11:35.821Z,19.77
2023-03-18T18:14:19.061Z,18.20
2023-03-18T18:16:47.854Z,16.60
2023-03-18T18:19:15.006Z,16.77
2023-03-18T18:21:43.917Z,21.20
2023-03-18T18:24:24.076Z,17.27
2023-03-18T18:26:51.765Z,18.30
2023-03-18T18:29:22.302Z,18.30
2023-03-18T18:31:50.168Z,19.40
2023-03-18T18:34:17.281Z,19.87
2023-03-18T18:36:45.080Z,21.77
2023-03-18T18:39:12.127Z,25.73
2023-03-18T18:41:40.426Z,20.00
2023-03-18T18:44:07.753Z,21.83
2023-03-18T18:46:36.077Z,20.80
2023-03-18T18:49:03.396Z,24.73
2023-03-18T18:51:30.714Z,25.40
2023-03-18T18:53:57.645Z,25.70
2023-03-18T18:56:34.152Z,20.63
2023-03-18T18:59:02.078Z,25.00
2023-03-18T19:01:31.124Z,26.83
2023-03-18T19:03:58.145Z,24.97
2023-03-18T19:06:31.612Z,23.73
2023-03-18T19:09:00.824Z,31.53
2023-03-18T19:11:29.202Z,28.63
2023-03-18T19:14:17.518Z,27.07
2023-03-18T19:16:45.700Z,29.07
2023-03-18T19:19:19.050Z,26.37
2023-03-18T19:21:46.948Z,28.73
2023-03-18T19:24:28.851Z,23.40
2023-03-18T19:27:02.139Z,23.43
2023-03-18T19:29:29.908Z,22.63
2023-03-18T19:31:57.234Z,25.50
2023-03-18T19:34:24.515Z,21.50
2023-03-18T19:36:54.789Z,18.77
2023-03-18T19:39:23.460Z,27.87
2023-03-18T19:41:53.437Z,19.97
2023-03-18T19:44:26.532Z,21.10
2023-03-18T19:46:56.292Z,20.53
2023-03-18T19:49:24.841Z,27.90
2023-03-18T19:51:53.016Z,18.50
2023-03-18T19:54:32.823Z,20.63
2023-03-18T19:57:03.936Z,22.77
2023-03-18T19:59:38.683Z,22.53
2023-03-18T20:02:28.874Z,23.43
2023-03-18T20:04:58.851Z,22.17
2023-03-18T20:07:29.003Z,24.33
2023-03-18T20:09:56.793Z,22.77
2023-03-18T20:12:56.493Z,30.00
2023-03-18T20:15:27.065Z,21.70
2023-03-18T20:17:54.555Z,27.30
2023-03-18T20:20:24.110Z,20.73
2023-03-18T20:22:57.482Z,21.90
2023-03-18T20:25:37.386Z,24.67
2023-03-18T20:28:05.974Z,23.30
2023-03-18T20:30:34.109Z,20.20
2023-03-18T20:33:05.244Z,20.30
2023-03-18T20:35:38.114Z,25.23
2023-03-18T20:38:22.321Z,24.70
2023-03-18T20:40:49.530Z,20.47
2023-03-18T20:43:22.063Z,21.43
2023-03-18T20:45:51.464Z,21.50
2023-03-18T20:48:19.852Z,23.83
2023-03-18T20:50:47.108Z,25.67
2023-03-18T20:53:28.941Z,24.73
2023-03-18T20:55:56.914Z,23.00
2023-03-18T20:58:26.376Z,20.13
2023-03-18T21:00:53.817Z,21.30
2023-03-18T21:03:27.066Z,21.87
2023-03-18T21:05:56.763Z,22.50
2023-03-18T21:08:25.357Z,22.83
2023-03-18T21:10:53.661Z,25.10
2023-03-18T21:13:35.597Z,28.27
2023-03-18T21:16:04.436Z,22.37
2023-03-18T21:18:32.126Z,20.90
2023-03-18T21:21:01.070Z,25.50
2023-03-18T21:23:29.955Z,23.20
2023-03-18T21:25:57.577Z,28.00
2023-03-18T21:28:26.953Z,25.63
2023-03-18T21:30:58.065Z,23.60
2023-03-18T21:33:27.868Z,24.37
2023-03-18T21:35:58.044Z,21.37
2023-03-18T21:38:30.700Z,26.03
2023-03-18T21:40:59.269Z,25.27
2023-03-18T21:43:33.616Z,23.30
2023-03-18T21:46:05.947Z,21.27
2023-03-18T21:48:33.353Z,22.53
2023-03-18T21:51:00.540Z,25.87
2023-03-18T21:53:28.527Z,26.30
2023-03-18T21:55:56.164Z,22.17
2023-03-18T21:58:25.960Z,23.50
2023-03-18T22:00:58.409Z,28.30
2023-03-18T22:03:29.035Z,25.23
2023-03-18T22:05:57.455Z,25.50
2023-03-18T22:08:25.453Z,22.80
2023-03-18T22:10:52.625Z,32.07
2023-03-18T22:13:25.424Z,29.13
2023-03-18T22:15:56.754Z,28.73
2023-03-18T22:18:24.325Z,27.07
2023-03-18T22:20:51.808Z,23.80
2023-03-18T22:23:28.487Z,24.10
2023-03-18T22:25:57.373Z,25.20
2023-03-18T22:28:25.996Z,22.03
2023-03-18T22:30:55.888Z,25.17
2023-03-18T22:33:29.624Z,24.33
2023-03-18T22:35:57.019Z,24.03
2023-03-18T22:38:25.719Z,29.73
2023-03-18T22:40:55.468Z,24.23
2023-03-18T22:43:33.688Z,27.90
2023-03-18T22:46:03.492Z,26.83
2023-03-18T22:48:30.913Z,24.57
2023-03-18T22:51:01.831Z,25.27
2023-03-18T22:53:40.756Z,27.00
2023-03-18T22:56:12.846Z,23.90
2023-03-18T22:58:40.349Z,29.20
2023-03-18T23:01:07.847Z,28.50
2023-03-18T23:03:40.392Z,25.87
2023-03-18T23:06:07.915Z,29.37
2023-03-18T23:08:35.529Z,26.93
2023-03-18T23:11:02.743Z,23.30
2023-03-18T23:13:35.856Z,27.73
2023-03-18T23:16:05.333Z,27.33
2023-03-18T23:18:32.753Z,25.27
2023-03-18T23:21:00.168Z,28.83
2023-03-18T23:23:29.676Z,27.13
2023-03-18T23:25:57.056Z,30.07
2023-03-18T23:28:24.594Z,24.30
2023-03-18T23:30:53.169Z,26.80
2023-03-18T23:33:20.874Z,28.33
2023-03-18T23:35:48.787Z,24.63
2023-03-18T23:38:16.466Z,28.17
2023-03-18T23:40:43.405Z,28.03
2023-03-18T23:43:10.733Z,31.87
2023-03-18T23:45:38.789Z,26.87
2023-03-18T23:48:07.000Z,26.40
2023-03-18T23:50:33.982Z,31.07
2023-03-18T23:53:01.300Z,25.93
2023-03-18T23:55:34.569Z,29.03
2023-03-18T23:58:03.121Z,25.80
